<?xml version="1.0" encoding="UTF-8" standalone="no" ?>
<gpx xmlns="http://www.topografix.com/GPX/1/1" xmlns:xsi="http://www.w3.org/2001/XMLSchema-instance" xsi:schemaLocation="http://www.topografix.com/GPX/1/1 http://www.topografix.com/GPX/1/1/gpx.xsd" version="1.1" creator="VisuGPX - https://www.visugpx.com">
  <metadata>
    <name>J1 PontTransbordeur_8-12km</name>
    <desc><![CDATA[J1 Rochefort 2025 8 et 12km]]></desc>
  </metadata>
  <trk>
    <name><![CDATA[Rochefort Pont Transbordeur 8 km GNE-20056099]]></name>
    <extensions>
      <line xmlns="http://www.topografix.com/GPX/gpx_style/0/2">
        <color>00FF00</color>
        <width>4</width>
      </line>
    </extensions>
    <trkseg>
      <trkpt lat="45.91733" lon="-0.96061">
        <ele>4</ele>
        <time>2025-01-11T16:29:11.000Z</time>
      </trkpt>
      <trkpt lat="45.91717" lon="-0.9605">
        <ele>2</ele>
        <time>2025-01-11T16:29:26.430Z</time>
      </trkpt>
      <trkpt lat="45.91715" lon="-0.9606">
        <ele>2</ele>
        <time>2025-01-11T16:29:33.628Z</time>
      </trkpt>
      <trkpt lat="45.91714" lon="-0.96072">
        <ele>3</ele>
        <time>2025-01-11T16:29:46.033Z</time>
      </trkpt>
      <trkpt lat="45.91687" lon="-0.96076">
        <ele>6</ele>
        <time>2025-01-11T16:30:24.903Z</time>
      </trkpt>
      <trkpt lat="45.91687" lon="-0.96076">
        <ele>6</ele>
        <time>2025-01-11T16:30:24.903Z</time>
      </trkpt>
      <trkpt lat="45.9168" lon="-0.96076">
        <ele>7</ele>
        <time>2025-01-11T16:30:36.167Z</time>
      </trkpt>
      <trkpt lat="45.91538" lon="-0.96066">
        <ele>12</ele>
        <time>2025-01-11T16:33:14.066Z</time>
      </trkpt>
      <trkpt lat="45.91537" lon="-0.96066">
        <ele>12</ele>
        <time>2025-01-11T16:33:15.060Z</time>
      </trkpt>
      <trkpt lat="45.91537" lon="-0.96066">
        <ele>12</ele>
        <time>2025-01-11T16:33:15.060Z</time>
      </trkpt>
      <trkpt lat="45.91526" lon="-0.96064">
        <ele>12</ele>
        <time>2025-01-11T16:33:26.084Z</time>
      </trkpt>
      <trkpt lat="45.91497" lon="-0.96043">
        <ele>12</ele>
        <time>2025-01-11T16:33:58.371Z</time>
      </trkpt>
      <trkpt lat="45.9137" lon="-0.95954">
        <ele>10</ele>
        <time>2025-01-11T16:36:12.915Z</time>
      </trkpt>
      <trkpt lat="45.9137" lon="-0.95954">
        <ele>10</ele>
        <time>2025-01-11T16:36:12.915Z</time>
      </trkpt>
      <trkpt lat="45.91366" lon="-0.95951">
        <ele>10</ele>
        <time>2025-01-11T16:36:17.402Z</time>
      </trkpt>
      <trkpt lat="45.91362" lon="-0.95944">
        <ele>10</ele>
        <time>2025-01-11T16:36:23.668Z</time>
      </trkpt>
      <trkpt lat="45.91301" lon="-0.95944">
        <ele>11</ele>
        <time>2025-01-11T16:37:27.491Z</time>
      </trkpt>
      <trkpt lat="45.91256" lon="-0.95946">
        <ele>10</ele>
        <time>2025-01-11T16:38:09.336Z</time>
      </trkpt>
      <trkpt lat="45.91213" lon="-0.95948">
        <ele>9</ele>
        <time>2025-01-11T16:38:49.199Z</time>
      </trkpt>
      <trkpt lat="45.91069" lon="-0.95953">
        <ele>8</ele>
        <time>2025-01-11T16:41:09.402Z</time>
      </trkpt>
      <trkpt lat="45.91064" lon="-0.95956">
        <ele>9</ele>
        <time>2025-01-11T16:41:19.602Z</time>
      </trkpt>
      <trkpt lat="45.91061" lon="-0.95959">
        <ele>9</ele>
        <time>2025-01-11T16:41:23.236Z</time>
      </trkpt>
      <trkpt lat="45.91054" lon="-0.9598">
        <ele>9</ele>
        <time>2025-01-11T16:41:39.345Z</time>
      </trkpt>
      <trkpt lat="45.91039" lon="-0.95974">
        <ele>9</ele>
        <time>2025-01-11T16:41:54.826Z</time>
      </trkpt>
      <trkpt lat="45.91022" lon="-0.95968">
        <ele>8</ele>
        <time>2025-01-11T16:42:10.056Z</time>
      </trkpt>
      <trkpt lat="45.90985" lon="-0.9596">
        <ele>8</ele>
        <time>2025-01-11T16:42:47.258Z</time>
      </trkpt>
      <trkpt lat="45.90951" lon="-0.95957">
        <ele>8</ele>
        <time>2025-01-11T16:43:21.127Z</time>
      </trkpt>
      <trkpt lat="45.90916" lon="-0.95959">
        <ele>8</ele>
        <time>2025-01-11T16:43:55.955Z</time>
      </trkpt>
      <trkpt lat="45.90915" lon="-0.95959">
        <ele>8</ele>
        <time>2025-01-11T16:43:56.949Z</time>
      </trkpt>
      <trkpt lat="45.90895" lon="-0.95954">
        <ele>8</ele>
        <time>2025-01-11T16:44:17.133Z</time>
      </trkpt>
      <trkpt lat="45.90892" lon="-0.95939">
        <ele>7</ele>
        <time>2025-01-11T16:44:26.581Z</time>
      </trkpt>
      <trkpt lat="45.9086" lon="-0.95897">
        <ele>6</ele>
        <time>2025-01-11T16:45:06.755Z</time>
      </trkpt>
      <trkpt lat="45.90853" lon="-0.95884">
        <ele>7</ele>
        <time>2025-01-11T16:45:21.868Z</time>
      </trkpt>
      <trkpt lat="45.9085" lon="-0.95872">
        <ele>7</ele>
        <time>2025-01-11T16:45:30.690Z</time>
      </trkpt>
      <trkpt lat="45.90849" lon="-0.95868">
        <ele>7</ele>
        <time>2025-01-11T16:45:33.630Z</time>
      </trkpt>
      <trkpt lat="45.90847" lon="-0.95843">
        <ele>7</ele>
        <time>2025-01-11T16:45:51.040Z</time>
      </trkpt>
      <trkpt lat="45.90859" lon="-0.95838">
        <ele>7</ele>
        <time>2025-01-11T16:46:03.463Z</time>
      </trkpt>
      <trkpt lat="45.90903" lon="-0.95802">
        <ele>8</ele>
        <time>2025-01-11T16:46:57.000Z</time>
      </trkpt>
      <trkpt lat="45.90976" lon="-0.95725">
        <ele>9</ele>
        <time>2025-01-11T16:48:30.168Z</time>
      </trkpt>
      <trkpt lat="45.91029" lon="-0.95675">
        <ele>9</ele>
        <time>2025-01-11T16:49:33.203Z</time>
      </trkpt>
      <trkpt lat="45.91066" lon="-0.95639">
        <ele>9</ele>
        <time>2025-01-11T16:50:17.629Z</time>
      </trkpt>
      <trkpt lat="45.91105" lon="-0.95612">
        <ele>8</ele>
        <time>2025-01-11T16:50:57.756Z</time>
      </trkpt>
      <trkpt lat="45.91145" lon="-0.95589">
        <ele>8</ele>
        <time>2025-01-11T16:51:40.592Z</time>
      </trkpt>
      <trkpt lat="45.91155" lon="-0.95582">
        <ele>8</ele>
        <time>2025-01-11T16:51:51.651Z</time>
      </trkpt>
      <trkpt lat="45.91186" lon="-0.95525">
        <ele>9</ele>
        <time>2025-01-11T16:52:44.897Z</time>
      </trkpt>
      <trkpt lat="45.91204" lon="-0.95481">
        <ele>9</ele>
        <time>2025-01-11T16:53:20.207Z</time>
      </trkpt>
      <trkpt lat="45.91219" lon="-0.95451">
        <ele>9</ele>
        <time>2025-01-11T16:53:45.764Z</time>
      </trkpt>
      <trkpt lat="45.9127" lon="-0.95385">
        <ele>8</ele>
        <time>2025-01-11T16:54:51.032Z</time>
      </trkpt>
      <trkpt lat="45.91313" lon="-0.95312">
        <ele>8</ele>
        <time>2025-01-11T16:55:57.199Z</time>
      </trkpt>
      <trkpt lat="45.91336" lon="-0.95251">
        <ele>8</ele>
        <time>2025-01-11T16:56:45.195Z</time>
      </trkpt>
      <trkpt lat="45.91348" lon="-0.95225">
        <ele>7</ele>
        <time>2025-01-11T16:57:04.081Z</time>
      </trkpt>
      <trkpt lat="45.9136" lon="-0.95209">
        <ele>7</ele>
        <time>2025-01-11T16:57:20.355Z</time>
      </trkpt>
      <trkpt lat="45.91382" lon="-0.95191">
        <ele>5</ele>
        <time>2025-01-11T16:57:42.379Z</time>
      </trkpt>
      <trkpt lat="45.91392" lon="-0.95175">
        <ele>5</ele>
        <time>2025-01-11T16:57:57.257Z</time>
      </trkpt>
      <trkpt lat="45.91413" lon="-0.95104">
        <ele>5</ele>
        <time>2025-01-11T16:58:50.626Z</time>
      </trkpt>
      <trkpt lat="45.91428" lon="-0.95044">
        <ele>4</ele>
        <time>2025-01-11T16:59:31.812Z</time>
      </trkpt>
      <trkpt lat="45.91436" lon="-0.94988">
        <ele>4</ele>
        <time>2025-01-11T17:00:11.359Z</time>
      </trkpt>
      <trkpt lat="45.91436" lon="-0.94965">
        <ele>3</ele>
        <time>2025-01-11T17:00:25.280Z</time>
      </trkpt>
      <trkpt lat="45.91433" lon="-0.94929">
        <ele>3</ele>
        <time>2025-01-11T17:00:50.362Z</time>
      </trkpt>
      <trkpt lat="45.91428" lon="-0.94872">
        <ele>3</ele>
        <time>2025-01-11T17:01:30.104Z</time>
      </trkpt>
      <trkpt lat="45.91401" lon="-0.94673">
        <ele>5</ele>
        <time>2025-01-11T17:03:56.670Z</time>
      </trkpt>
      <trkpt lat="45.91404" lon="-0.94629">
        <ele>4</ele>
        <time>2025-01-11T17:04:24.396Z</time>
      </trkpt>
      <trkpt lat="45.91399" lon="-0.94557">
        <ele>4</ele>
        <time>2025-01-11T17:05:14.450Z</time>
      </trkpt>
      <trkpt lat="45.91386" lon="-0.9445">
        <ele>3</ele>
        <time>2025-01-11T17:06:26.613Z</time>
      </trkpt>
      <trkpt lat="45.91369" lon="-0.94351">
        <ele>3</ele>
        <time>2025-01-11T17:07:37.153Z</time>
      </trkpt>
      <trkpt lat="45.91362" lon="-0.94302">
        <ele>3</ele>
        <time>2025-01-11T17:08:11.756Z</time>
      </trkpt>
      <trkpt lat="45.91372" lon="-0.94278">
        <ele>3</ele>
        <time>2025-01-11T17:08:31.108Z</time>
      </trkpt>
      <trkpt lat="45.91392" lon="-0.94205">
        <ele>3</ele>
        <time>2025-01-11T17:09:25.381Z</time>
      </trkpt>
      <trkpt lat="45.91406" lon="-0.94166">
        <ele>2</ele>
        <time>2025-01-11T17:09:52.883Z</time>
      </trkpt>
      <trkpt lat="45.91416" lon="-0.94145">
        <ele>2</ele>
        <time>2025-01-11T17:10:10.487Z</time>
      </trkpt>
      <trkpt lat="45.91468" lon="-0.94059">
        <ele>4</ele>
        <time>2025-01-11T17:11:35.776Z</time>
      </trkpt>
      <trkpt lat="45.91451" lon="-0.94041">
        <ele>4</ele>
        <time>2025-01-11T17:11:56.769Z</time>
      </trkpt>
      <trkpt lat="45.91419" lon="-0.94001">
        <ele>5</ele>
        <time>2025-01-11T17:12:42.159Z</time>
      </trkpt>
      <trkpt lat="45.91392" lon="-0.93963">
        <ele>5</ele>
        <time>2025-01-11T17:13:19.731Z</time>
      </trkpt>
      <trkpt lat="45.91342" lon="-0.93878">
        <ele>5</ele>
        <time>2025-01-11T17:14:36.730Z</time>
      </trkpt>
      <trkpt lat="45.91298" lon="-0.93822">
        <ele>5</ele>
        <time>2025-01-11T17:15:35.165Z</time>
      </trkpt>
      <trkpt lat="45.91277" lon="-0.93802">
        <ele>5</ele>
        <time>2025-01-11T17:16:00.213Z</time>
      </trkpt>
      <trkpt lat="45.91266" lon="-0.93796">
        <ele>6</ele>
        <time>2025-01-11T17:16:15.630Z</time>
      </trkpt>
      <trkpt lat="45.91251" lon="-0.938">
        <ele>6</ele>
        <time>2025-01-11T17:16:30.799Z</time>
      </trkpt>
      <trkpt lat="45.9124" lon="-0.93798">
        <ele>7</ele>
        <time>2025-01-11T17:16:45.589Z</time>
      </trkpt>
      <trkpt lat="45.91208" lon="-0.93783">
        <ele>8</ele>
        <time>2025-01-11T17:17:22.323Z</time>
      </trkpt>
      <trkpt lat="45.91199" lon="-0.93787">
        <ele>8</ele>
        <time>2025-01-11T17:17:31.690Z</time>
      </trkpt>
      <trkpt lat="45.91185" lon="-0.93801">
        <ele>9</ele>
        <time>2025-01-11T17:17:52.140Z</time>
      </trkpt>
      <trkpt lat="45.91161" lon="-0.93813">
        <ele>10</ele>
        <time>2025-01-11T17:18:20.746Z</time>
      </trkpt>
      <trkpt lat="45.91137" lon="-0.93821">
        <ele>10</ele>
        <time>2025-01-11T17:18:45.242Z</time>
      </trkpt>
      <trkpt lat="45.91111" lon="-0.93826">
        <ele>10</ele>
        <time>2025-01-11T17:19:11.323Z</time>
      </trkpt>
      <trkpt lat="45.9103" lon="-0.93831">
        <ele>11</ele>
        <time>2025-01-11T17:20:35.078Z</time>
      </trkpt>
      <trkpt lat="45.91015" lon="-0.93835">
        <ele>11</ele>
        <time>2025-01-11T17:20:50.247Z</time>
      </trkpt>
      <trkpt lat="45.90982" lon="-0.93852">
        <ele>11</ele>
        <time>2025-01-11T17:21:25.103Z</time>
      </trkpt>
      <trkpt lat="45.90967" lon="-0.93863">
        <ele>11</ele>
        <time>2025-01-11T17:21:41.846Z</time>
      </trkpt>
      <trkpt lat="45.90941" lon="-0.93881">
        <ele>11</ele>
        <time>2025-01-11T17:22:10.540Z</time>
      </trkpt>
      <trkpt lat="45.90853" lon="-0.93969">
        <ele>11</ele>
        <time>2025-01-11T17:23:57.134Z</time>
      </trkpt>
      <trkpt lat="45.90841" lon="-0.93977">
        <ele>11</ele>
        <time>2025-01-11T17:24:10.286Z</time>
      </trkpt>
      <trkpt lat="45.90836" lon="-0.9395">
        <ele>10</ele>
        <time>2025-01-11T17:24:27.200Z</time>
      </trkpt>
      <trkpt lat="45.90828" lon="-0.9395">
        <ele>10</ele>
        <time>2025-01-11T17:24:35.154Z</time>
      </trkpt>
      <trkpt lat="45.90779" lon="-0.9392">
        <ele>10</ele>
        <time>2025-01-11T17:25:28.110Z</time>
      </trkpt>
      <trkpt lat="45.90751" lon="-0.93909">
        <ele>10</ele>
        <time>2025-01-11T17:25:56.972Z</time>
      </trkpt>
      <trkpt lat="45.90723" lon="-0.93902">
        <ele>10</ele>
        <time>2025-01-11T17:26:25.230Z</time>
      </trkpt>
      <trkpt lat="45.90691" lon="-0.93902">
        <ele>11</ele>
        <time>2025-01-11T17:27:00.326Z</time>
      </trkpt>
      <trkpt lat="45.90642" lon="-0.93904">
        <ele>12</ele>
        <time>2025-01-11T17:27:52.266Z</time>
      </trkpt>
      <trkpt lat="45.90605" lon="-0.93902">
        <ele>12</ele>
        <time>2025-01-11T17:28:29.080Z</time>
      </trkpt>
      <trkpt lat="45.90584" lon="-0.93905">
        <ele>13</ele>
        <time>2025-01-11T17:28:53.465Z</time>
      </trkpt>
      <trkpt lat="45.90546" lon="-0.93918">
        <ele>12</ele>
        <time>2025-01-11T17:29:29.405Z</time>
      </trkpt>
      <trkpt lat="45.90521" lon="-0.93936">
        <ele>11</ele>
        <time>2025-01-11T17:29:54.369Z</time>
      </trkpt>
      <trkpt lat="45.90479" lon="-0.93973">
        <ele>11</ele>
        <time>2025-01-11T17:30:43.350Z</time>
      </trkpt>
      <trkpt lat="45.90437" lon="-0.93997">
        <ele>11</ele>
        <time>2025-01-11T17:31:28.290Z</time>
      </trkpt>
      <trkpt lat="45.90401" lon="-0.94011">
        <ele>11</ele>
        <time>2025-01-11T17:32:05.372Z</time>
      </trkpt>
      <trkpt lat="45.90377" lon="-0.94023">
        <ele>10</ele>
        <time>2025-01-11T17:32:27.820Z</time>
      </trkpt>
      <trkpt lat="45.90295" lon="-0.9408">
        <ele>9</ele>
        <time>2025-01-11T17:33:55.400Z</time>
      </trkpt>
      <trkpt lat="45.90264" lon="-0.94098">
        <ele>9</ele>
        <time>2025-01-11T17:34:28.643Z</time>
      </trkpt>
      <trkpt lat="45.90242" lon="-0.94109">
        <ele>9</ele>
        <time>2025-01-11T17:34:51.804Z</time>
      </trkpt>
      <trkpt lat="45.90151" lon="-0.94133">
        <ele>6</ele>
        <time>2025-01-11T17:36:15.221Z</time>
      </trkpt>
      <trkpt lat="45.90133" lon="-0.94136">
        <ele>6</ele>
        <time>2025-01-11T17:36:33.238Z</time>
      </trkpt>
      <trkpt lat="45.90112" lon="-0.94257">
        <ele>5</ele>
        <time>2025-01-11T17:37:56.538Z</time>
      </trkpt>
      <trkpt lat="45.90088" lon="-0.94374">
        <ele>6</ele>
        <time>2025-01-11T17:39:24.077Z</time>
      </trkpt>
      <trkpt lat="45.90093" lon="-0.94377">
        <ele>6</ele>
        <time>2025-01-11T17:39:29.464Z</time>
      </trkpt>
      <trkpt lat="45.90145" lon="-0.9441">
        <ele>8</ele>
        <time>2025-01-11T17:40:32.601Z</time>
      </trkpt>
      <trkpt lat="45.90174" lon="-0.94429">
        <ele>8</ele>
        <time>2025-01-11T17:41:04.291Z</time>
      </trkpt>
      <trkpt lat="45.90205" lon="-0.94454">
        <ele>8</ele>
        <time>2025-01-11T17:41:39.636Z</time>
      </trkpt>
      <trkpt lat="45.9023" lon="-0.94476">
        <ele>7</ele>
        <time>2025-01-11T17:42:05.935Z</time>
      </trkpt>
      <trkpt lat="45.9024" lon="-0.94493">
        <ele>7</ele>
        <time>2025-01-11T17:42:21.337Z</time>
      </trkpt>
      <trkpt lat="45.90239" lon="-0.94519">
        <ele>7</ele>
        <time>2025-01-11T17:42:39.354Z</time>
      </trkpt>
      <trkpt lat="45.90228" lon="-0.94624">
        <ele>10</ele>
        <time>2025-01-11T17:44:02.871Z</time>
      </trkpt>
      <trkpt lat="45.9018" lon="-0.94831">
        <ele>10</ele>
        <time>2025-01-11T17:46:33.838Z</time>
      </trkpt>
      <trkpt lat="45.90163" lon="-0.94877">
        <ele>10</ele>
        <time>2025-01-11T17:47:09.876Z</time>
      </trkpt>
      <trkpt lat="45.90161" lon="-0.94896">
        <ele>10</ele>
        <time>2025-01-11T17:47:23.172Z</time>
      </trkpt>
      <trkpt lat="45.90158" lon="-0.94897">
        <ele>10</ele>
        <time>2025-01-11T17:47:26.234Z</time>
      </trkpt>
      <trkpt lat="45.90163" lon="-0.94948">
        <ele>10</ele>
        <time>2025-01-11T17:48:01.870Z</time>
      </trkpt>
      <trkpt lat="45.90167" lon="-0.94963">
        <ele>9</ele>
        <time>2025-01-11T17:48:11.596Z</time>
      </trkpt>
      <trkpt lat="45.90181" lon="-0.94997">
        <ele>9</ele>
        <time>2025-01-11T17:48:38.930Z</time>
      </trkpt>
      <trkpt lat="45.90213" lon="-0.95063">
        <ele>10</ele>
        <time>2025-01-11T17:49:37.770Z</time>
      </trkpt>
      <trkpt lat="45.90215" lon="-0.95069">
        <ele>10</ele>
        <time>2025-01-11T17:49:42.373Z</time>
      </trkpt>
      <trkpt lat="45.90201" lon="-0.95087">
        <ele>9</ele>
        <time>2025-01-11T17:49:58.717Z</time>
      </trkpt>
      <trkpt lat="45.90193" lon="-0.95119">
        <ele>10</ele>
        <time>2025-01-11T17:50:25.605Z</time>
      </trkpt>
      <trkpt lat="45.9017" lon="-0.95222">
        <ele>10</ele>
        <time>2025-01-11T17:51:40.451Z</time>
      </trkpt>
      <trkpt lat="45.90134" lon="-0.95206">
        <ele>10</ele>
        <time>2025-01-11T17:52:17.918Z</time>
      </trkpt>
      <trkpt lat="45.90129" lon="-0.95203">
        <ele>10</ele>
        <time>2025-01-11T17:52:23.306Z</time>
      </trkpt>
      <trkpt lat="45.90086" lon="-0.9525">
        <ele>9</ele>
        <time>2025-01-11T17:53:14.080Z</time>
      </trkpt>
      <trkpt lat="45.901" lon="-0.95278">
        <ele>9</ele>
        <time>2025-01-11T17:53:37.936Z</time>
      </trkpt>
      <trkpt lat="45.90152" lon="-0.95386">
        <ele>9</ele>
        <time>2025-01-11T17:55:08.806Z</time>
      </trkpt>
      <trkpt lat="45.90159" lon="-0.95401">
        <ele>9</ele>
        <time>2025-01-11T17:55:21.302Z</time>
      </trkpt>
      <trkpt lat="45.90168" lon="-0.95409">
        <ele>9</ele>
        <time>2025-01-11T17:55:31.825Z</time>
      </trkpt>
      <trkpt lat="45.90171" lon="-0.95405">
        <ele>9</ele>
        <time>2025-01-11T17:55:35.894Z</time>
      </trkpt>
      <trkpt lat="45.90176" lon="-0.95402">
        <ele>9</ele>
        <time>2025-01-11T17:55:41.281Z</time>
      </trkpt>
      <trkpt lat="45.90183" lon="-0.95402">
        <ele>9</ele>
        <time>2025-01-11T17:55:48.241Z</time>
      </trkpt>
      <trkpt lat="45.9019" lon="-0.95409">
        <ele>9</ele>
        <time>2025-01-11T17:55:56.720Z</time>
      </trkpt>
      <trkpt lat="45.90192" lon="-0.95417">
        <ele>9</ele>
        <time>2025-01-11T17:56:02.602Z</time>
      </trkpt>
      <trkpt lat="45.90191" lon="-0.95418">
        <ele>9</ele>
        <time>2025-01-11T17:56:03.813Z</time>
      </trkpt>
      <trkpt lat="45.90192" lon="-0.95417">
        <ele>9</ele>
        <time>2025-01-11T17:56:05.025Z</time>
      </trkpt>
      <trkpt lat="45.90209" lon="-0.95411">
        <ele>9</ele>
        <time>2025-01-11T17:56:22.430Z</time>
      </trkpt>
      <trkpt lat="45.90221" lon="-0.95409">
        <ele>9</ele>
        <time>2025-01-11T17:56:34.441Z</time>
      </trkpt>
      <trkpt lat="45.9023" lon="-0.95408">
        <ele>9</ele>
        <time>2025-01-11T17:56:43.416Z</time>
      </trkpt>
      <trkpt lat="45.90251" lon="-0.9541">
        <ele>9</ele>
        <time>2025-01-11T17:57:04.342Z</time>
      </trkpt>
      <trkpt lat="45.90249" lon="-0.95436">
        <ele>9</ele>
        <time>2025-01-11T17:57:22.441Z</time>
      </trkpt>
      <trkpt lat="45.90252" lon="-0.9545">
        <ele>9</ele>
        <time>2025-01-11T17:57:32.577Z</time>
      </trkpt>
      <trkpt lat="45.90258" lon="-0.95454">
        <ele>10</ele>
        <time>2025-01-11T17:57:43.552Z</time>
      </trkpt>
      <trkpt lat="45.90317" lon="-0.95473">
        <ele>10</ele>
        <time>2025-01-11T17:58:43.669Z</time>
      </trkpt>
      <trkpt lat="45.90325" lon="-0.95485">
        <ele>10</ele>
        <time>2025-01-11T17:58:55.167Z</time>
      </trkpt>
      <trkpt lat="45.90347" lon="-0.95493">
        <ele>10</ele>
        <time>2025-01-11T17:59:17.731Z</time>
      </trkpt>
      <trkpt lat="45.90349" lon="-0.95507">
        <ele>10</ele>
        <time>2025-01-11T17:59:27.619Z</time>
      </trkpt>
      <trkpt lat="45.9036" lon="-0.95517">
        <ele>10</ele>
        <time>2025-01-11T17:59:40.561Z</time>
      </trkpt>
      <trkpt lat="45.90396" lon="-0.9553">
        <ele>10</ele>
        <time>2025-01-11T18:00:17.468Z</time>
      </trkpt>
      <trkpt lat="45.90421" lon="-0.95539">
        <ele>10</ele>
        <time>2025-01-11T18:00:43.093Z</time>
      </trkpt>
      <trkpt lat="45.90426" lon="-0.95534">
        <ele>10</ele>
        <time>2025-01-11T18:00:49.150Z</time>
      </trkpt>
      <trkpt lat="45.90429" lon="-0.9552">
        <ele>10</ele>
        <time>2025-01-11T18:00:59.285Z</time>
      </trkpt>
      <trkpt lat="45.90439" lon="-0.95466">
        <ele>10</ele>
        <time>2025-01-11T18:01:37.947Z</time>
      </trkpt>
      <trkpt lat="45.90443" lon="-0.9546">
        <ele>10</ele>
        <time>2025-01-11T18:01:43.696Z</time>
      </trkpt>
      <trkpt lat="45.90507" lon="-0.95428">
        <ele>9</ele>
        <time>2025-01-11T18:02:48.106Z</time>
      </trkpt>
      <trkpt lat="45.90521" lon="-0.95418">
        <ele>10</ele>
        <time>2025-01-11T18:03:07.187Z</time>
      </trkpt>
      <trkpt lat="45.90557" lon="-0.95379">
        <ele>11</ele>
        <time>2025-01-11T18:03:55.225Z</time>
      </trkpt>
      <trkpt lat="45.90576" lon="-0.95371">
        <ele>11</ele>
        <time>2025-01-11T18:04:14.911Z</time>
      </trkpt>
      <trkpt lat="45.9058" lon="-0.95372">
        <ele>11</ele>
        <time>2025-01-11T18:04:18.947Z</time>
      </trkpt>
      <trkpt lat="45.90583" lon="-0.95375">
        <ele>11</ele>
        <time>2025-01-11T18:04:22.581Z</time>
      </trkpt>
      <trkpt lat="45.90586" lon="-0.95377">
        <ele>11</ele>
        <time>2025-01-11T18:04:25.870Z</time>
      </trkpt>
      <trkpt lat="45.9059" lon="-0.95389">
        <ele>11</ele>
        <time>2025-01-11T18:04:35.075Z</time>
      </trkpt>
      <trkpt lat="45.906" lon="-0.95435">
        <ele>10</ele>
        <time>2025-01-11T18:05:05.544Z</time>
      </trkpt>
      <trkpt lat="45.90605" lon="-0.95499">
        <ele>10</ele>
        <time>2025-01-11T18:05:50.101Z</time>
      </trkpt>
      <trkpt lat="45.90635" lon="-0.95595">
        <ele>10</ele>
        <time>2025-01-11T18:07:02.910Z</time>
      </trkpt>
      <trkpt lat="45.90641" lon="-0.95647">
        <ele>9</ele>
        <time>2025-01-11T18:07:36.489Z</time>
      </trkpt>
      <trkpt lat="45.90643" lon="-0.95684">
        <ele>9</ele>
        <time>2025-01-11T18:08:02.165Z</time>
      </trkpt>
      <trkpt lat="45.90645" lon="-0.95718">
        <ele>9</ele>
        <time>2025-01-11T18:08:25.772Z</time>
      </trkpt>
      <trkpt lat="45.90642" lon="-0.95742">
        <ele>10</ele>
        <time>2025-01-11T18:08:46.137Z</time>
      </trkpt>
      <trkpt lat="45.90632" lon="-0.95793">
        <ele>9</ele>
        <time>2025-01-11T18:09:19.906Z</time>
      </trkpt>
      <trkpt lat="45.90625" lon="-0.95833">
        <ele>9</ele>
        <time>2025-01-11T18:09:48.442Z</time>
      </trkpt>
      <trkpt lat="45.90621" lon="-0.95887">
        <ele>8</ele>
        <time>2025-01-11T18:10:23.120Z</time>
      </trkpt>
      <trkpt lat="45.90684" lon="-0.95891">
        <ele>7</ele>
        <time>2025-01-11T18:11:22.862Z</time>
      </trkpt>
      <trkpt lat="45.90742" lon="-0.95895">
        <ele>7</ele>
        <time>2025-01-11T18:12:20.596Z</time>
      </trkpt>
      <trkpt lat="45.90785" lon="-0.95897">
        <ele>7</ele>
        <time>2025-01-11T18:13:03.373Z</time>
      </trkpt>
      <trkpt lat="45.90823" lon="-0.95896">
        <ele>6</ele>
        <time>2025-01-11T18:13:38.267Z</time>
      </trkpt>
      <trkpt lat="45.90828" lon="-0.95889">
        <ele>6</ele>
        <time>2025-01-11T18:13:45.208Z</time>
      </trkpt>
      <trkpt lat="45.90839" lon="-0.95873">
        <ele>7</ele>
        <time>2025-01-11T18:14:04.305Z</time>
      </trkpt>
      <trkpt lat="45.90849" lon="-0.95868">
        <ele>7</ele>
        <time>2025-01-11T18:14:14.832Z</time>
      </trkpt>
      <trkpt lat="45.9085" lon="-0.95872">
        <ele>7</ele>
        <time>2025-01-11T18:14:17.772Z</time>
      </trkpt>
      <trkpt lat="45.90853" lon="-0.95884">
        <ele>7</ele>
        <time>2025-01-11T18:14:26.594Z</time>
      </trkpt>
      <trkpt lat="45.9086" lon="-0.95897">
        <ele>6</ele>
        <time>2025-01-11T18:14:36.545Z</time>
      </trkpt>
      <trkpt lat="45.90892" lon="-0.95939">
        <ele>7</ele>
        <time>2025-01-11T18:15:22.853Z</time>
      </trkpt>
      <trkpt lat="45.90895" lon="-0.95954">
        <ele>8</ele>
        <time>2025-01-11T18:15:37.434Z</time>
      </trkpt>
      <trkpt lat="45.90915" lon="-0.95959">
        <ele>8</ele>
        <time>2025-01-11T18:15:57.618Z</time>
      </trkpt>
      <trkpt lat="45.90951" lon="-0.95957">
        <ele>8</ele>
        <time>2025-01-11T18:16:33.439Z</time>
      </trkpt>
      <trkpt lat="45.90985" lon="-0.9596">
        <ele>8</ele>
        <time>2025-01-11T18:17:07.308Z</time>
      </trkpt>
      <trkpt lat="45.91022" lon="-0.95968">
        <ele>8</ele>
        <time>2025-01-11T18:17:44.511Z</time>
      </trkpt>
      <trkpt lat="45.91039" lon="-0.95974">
        <ele>9</ele>
        <time>2025-01-11T18:18:05.396Z</time>
      </trkpt>
      <trkpt lat="45.91054" lon="-0.9598">
        <ele>9</ele>
        <time>2025-01-11T18:18:20.877Z</time>
      </trkpt>
      <trkpt lat="45.91061" lon="-0.95959">
        <ele>9</ele>
        <time>2025-01-11T18:18:36.986Z</time>
      </trkpt>
      <trkpt lat="45.91064" lon="-0.95956">
        <ele>9</ele>
        <time>2025-01-11T18:18:40.619Z</time>
      </trkpt>
      <trkpt lat="45.91069" lon="-0.95953">
        <ele>8</ele>
        <time>2025-01-11T18:18:45.333Z</time>
      </trkpt>
      <trkpt lat="45.91213" lon="-0.95948">
        <ele>9</ele>
        <time>2025-01-11T18:21:11.659Z</time>
      </trkpt>
      <trkpt lat="45.91256" lon="-0.95946">
        <ele>10</ele>
        <time>2025-01-11T18:21:57.656Z</time>
      </trkpt>
      <trkpt lat="45.91301" lon="-0.95944">
        <ele>11</ele>
        <time>2025-01-11T18:22:45.634Z</time>
      </trkpt>
      <trkpt lat="45.91362" lon="-0.95944">
        <ele>10</ele>
        <time>2025-01-11T18:23:43.330Z</time>
      </trkpt>
      <trkpt lat="45.91366" lon="-0.95951">
        <ele>10</ele>
        <time>2025-01-11T18:23:49.596Z</time>
      </trkpt>
      <trkpt lat="45.9137" lon="-0.95954">
        <ele>10</ele>
        <time>2025-01-11T18:23:54.082Z</time>
      </trkpt>
      <trkpt lat="45.9137" lon="-0.95954">
        <ele>10</ele>
        <time>2025-01-11T18:23:54.082Z</time>
      </trkpt>
      <trkpt lat="45.91497" lon="-0.96043">
        <ele>12</ele>
        <time>2025-01-11T18:26:20.878Z</time>
      </trkpt>
      <trkpt lat="45.91526" lon="-0.96064">
        <ele>12</ele>
        <time>2025-01-11T18:26:53.165Z</time>
      </trkpt>
      <trkpt lat="45.91537" lon="-0.96066">
        <ele>12</ele>
        <time>2025-01-11T18:27:04.189Z</time>
      </trkpt>
      <trkpt lat="45.91537" lon="-0.96066">
        <ele>12</ele>
        <time>2025-01-11T18:27:04.189Z</time>
      </trkpt>
      <trkpt lat="45.91538" lon="-0.96066">
        <ele>12</ele>
        <time>2025-01-11T18:27:05.183Z</time>
      </trkpt>
      <trkpt lat="45.9168" lon="-0.96076">
        <ele>7</ele>
        <time>2025-01-11T18:29:12.331Z</time>
      </trkpt>
      <trkpt lat="45.91687" lon="-0.96076">
        <ele>6</ele>
        <time>2025-01-11T18:29:18.421Z</time>
      </trkpt>
      <trkpt lat="45.91687" lon="-0.96076">
        <ele>6</ele>
        <time>2025-01-11T18:29:18.421Z</time>
      </trkpt>
      <trkpt lat="45.91714" lon="-0.96072">
        <ele>3</ele>
        <time>2025-01-11T18:29:42.035Z</time>
      </trkpt>
      <trkpt lat="45.91715" lon="-0.9606">
        <ele>2</ele>
        <time>2025-01-11T18:29:49.350Z</time>
        <extensions>
          <visugpx:TrkExtension xmlns:visugpx="https://www.visugpx.com/editgpx/">
            <visugpx:node>1</visugpx:node>
            </visugpx:TrkExtension>
        </extensions>
      </trkpt>
    </trkseg>
  </trk>
</gpx>